Time;durP1;ratioP1;P1;durP2;ratioP2;P2;SDS_P1;SDS_P2;PMS_P1;PMS_P2;Temp;Humidity;BMP_temperature;BMP_pressure;BME280_temperature;BME280_humidity;BME280_pressure;Samples;Min_cycle;Max_cycle;Signal;HPM_P1;HPM_P2
2023/08/14 00:01:19;;;;;;;7.13;2.90;;;14.70;99.90;;;;;;4810983;29;20194;-84
2023/08/14 00:03:44;;;;;;;6.20;2.70;;;14.60;99.90;;;;;;4827344;29;20200;-84
2023/08/14 00:06:11;;;;;;;10.70;2.33;;;14.60;99.90;;;;;;4827352;29;20186;-84
2023/08/14 00:08:36;;;;;;;7.40;2.80;;;14.60;99.90;;;;;;4826893;29;20221;-84
2023/08/14 00:11:02;;;;;;;8.00;3.27;;;14.60;99.90;;;;;;4826775;29;20520;-84
2023/08/14 00:13:28;;;;;;;8.63;3.07;;;14.50;99.90;;;;;;4826601;29;20667;-84
2023/08/14 00:15:53;;;;;;;7.63;3.30;;;14.50;99.90;;;;;;4827131;29;20190;-84
2023/08/14 00:18:19;;;;;;;8.60;3.40;;;14.50;99.90;;;;;;4827046;29;20193;-84
2023/08/14 00:20:45;;;;;;;9.00;3.60;;;14.50;99.90;;;;;;4826895;29;20260;-84
2023/08/14 00:23:10;;;;;;;9.73;3.00;;;14.50;99.90;;;;;;4826763;29;20677;-84
2023/08/14 00:25:36;;;;;;;4.23;2.83;;;14.40;99.90;;;;;;4826773;29;20507;-84
2023/08/14 00:28:02;;;;;;;7.73;3.03;;;14.40;99.90;;;;;;4826507;29;20189;-84
2023/08/14 00:30:27;;;;;;;9.33;3.10;;;14.40;99.90;;;;;;4826636;29;20226;-84
2023/08/14 00:32:53;;;;;;;5.87;3.30;;;14.30;99.90;;;;;;4829921;29;20567;-84
2023/08/14 00:35:18;;;;;;;5.27;3.70;;;14.30;99.90;;;;;;4831842;29;20196;-84
2023/08/14 00:37:48;;;;;;;8.60;3.17;;;14.30;99.90;;;;;;4826902;29;20197;-84
2023/08/14 00:40:15;;;;;;;8.03;4.30;;;14.30;99.90;;;;;;4826455;29;20189;-84
2023/08/14 00:42:43;;;;;;;5.23;2.87;;;14.20;99.90;;;;;;4826545;29;20434;-84
2023/08/14 00:45:09;;;;;;;4.57;3.00;;;14.30;99.90;;;;;;4810262;29;20439;-84
2023/08/14 00:47:40;;;;;;;10.73;3.43;;;14.30;99.90;;;;;;4810217;29;20495;-84
2023/08/14 00:50:07;;;;;;;9.27;3.73;;;14.20;99.90;;;;;;4826488;29;20615;-84
2023/08/14 00:52:37;;;;;;;6.90;3.40;;;14.20;99.90;;;;;;4826179;29;20430;-84
2023/08/14 00:55:08;;;;;;;4.50;2.70;;;14.10;99.90;;;;;;4826224;29;20450;-84
2023/08/14 00:57:34;;;;;;;6.17;3.70;;;14.10;99.90;;;;;;4826203;29;20423;-84
2023/08/14 01:00:02;;;;;;;5.60;3.10;;;14.10;99.90;;;;;;4826130;29;20601;-84
2023/08/14 01:02:28;;;;;;;11.77;3.50;;;14.10;99.90;;;;;;4826526;29;20439;-84
2023/08/14 01:04:54;;;;;;;5.30;3.00;;;14.10;99.90;;;;;;4826292;29;20419;-84
2023/08/14 01:07:19;;;;;;;6.87;3.60;;;14.00;99.90;;;;;;4825939;29;20427;-84
2023/08/14 01:09:47;;;;;;;10.33;3.33;;;14.00;99.90;;;;;;4825878;29;20674;-84
2023/08/14 01:12:42;;;;;;;10.30;3.50;;;14.00;99.90;;;;;;4826419;29;20185;-84
2023/08/14 01:15:22;;;;;;;11.70;3.37;;;14.10;99.90;;;;;;4826290;29;20411;-84
2023/08/14 01:17:57;;;;;;;4.90;3.73;;;14.00;99.90;;;;;;4809843;29;20430;-84
2023/08/14 01:20:26;;;;;;;12.30;3.60;;;14.00;99.90;;;;;;4826099;29;20772;-84
2023/08/14 01:22:55;;;;;;;4.50;4.10;;;14.00;99.90;;;;;;4825971;29;20411;-85
2023/08/14 01:25:37;;;;;;;7.63;3.07;;;13.90;99.90;;;;;;4825779;29;20923;-84
2023/08/14 01:28:04;;;;;;;7.80;3.87;;;13.90;99.90;;;;;;4825929;29;20427;-84
2023/08/14 01:30:30;;;;;;;9.20;3.47;;;14.00;99.90;;;;;;4825858;29;20462;-84
2023/08/14 01:32:56;;;;;;;5.50;3.40;;;13.90;99.90;;;;;;4825800;29;20477;-84
2023/08/14 01:35:25;;;;;;;8.07;3.67;;;13.90;99.90;;;;;;4826199;29;20423;-84
2023/08/14 01:38:10;;;;;;;5.30;3.20;;;13.80;99.90;;;;;;4825879;29;20848;-84
2023/08/14 01:41:10;;;;;;;7.63;2.70;;;13.80;99.90;;;;;;4825833;29;20743;-84
2023/08/14 01:43:47;;;;;;;9.77;3.30;;;13.70;99.90;;;;;;4825819;29;20813;-84
2023/08/14 01:46:14;;;;;;;4.13;2.90;;;13.70;99.90;;;;;;4825910;29;20415;-84
2023/08/14 01:48:40;;;;;;;5.40;3.03;;;13.70;99.90;;;;;;4825781;29;20411;-84
2023/08/14 01:51:06;;;;;;;7.10;3.80;;;13.70;99.90;;;;;;4825841;29;20515;-84
2023/08/14 01:53:36;;;;;;;6.80;2.83;;;13.60;99.90;;;;;;4809633;29;20785;-83
2023/08/14 01:56:02;;;;;;;3.93;3.23;;;13.60;99.90;;;;;;4826281;29;20423;-84
2023/08/14 01:58:27;;;;;;;7.23;3.40;;;13.60;99.90;;;;;;4825622;29;20393;-84
2023/08/14 02:00:53;;;;;;;8.70;3.57;;;13.60;99.90;;;;;;4825583;29;20273;-84
2023/08/14 02:03:19;;;;;;;7.37;3.53;;;13.60;99.90;;;;;;4825800;29;20441;-84
2023/08/14 02:05:44;;;;;;;7.63;3.43;;;13.50;99.90;;;;;;4825507;29;20288;-84
2023/08/14 02:08:10;;;;;;;8.30;3.27;;;13.50;99.90;;;;;;4825216;29;20242;-84
2023/08/14 02:10:35;;;;;;;11.07;3.60;;;13.50;99.90;;;;;;4825749;29;20229;-84
2023/08/14 02:13:01;;;;;;;5.93;3.60;;;13.50;99.90;;;;;;4825570;29;20284;-84
2023/08/14 02:15:27;;;;;;;7.07;3.27;;;13.50;99.90;;;;;;4825761;29;20182;-84
2023/08/14 02:17:52;;;;;;;7.10;3.67;;;13.50;99.90;;;;;;4825781;29;20190;-84
2023/08/14 02:20:18;;;;;;;6.57;3.87;;;13.40;99.90;;;;;;4827019;29;20332;-84
2023/08/14 02:22:43;;;;;;;6.33;3.40;;;13.50;99.90;;;;;;4829321;29;20595;-84
2023/08/14 02:25:09;;;;;;;6.10;3.53;;;13.40;99.90;;;;;;4812853;29;20193;-84
2023/08/14 02:27:34;;;;;;;9.23;3.80;;;13.40;99.90;;;;;;4829083;29;20340;-84
2023/08/14 02:30:00;;;;;;;10.43;4.20;;;13.40;99.90;;;;;;4828779;29;20213;-84
2023/08/14 02:32:25;;;;;;;5.83;3.47;;;13.40;99.90;;;;;;4828750;29;20241;-84
2023/08/14 02:34:55;;;;;;;12.40;4.00;;;13.40;99.90;;;;;;4812774;29;20189;-84
2023/08/14 02:37:22;;;;;;;10.00;4.17;;;13.50;99.90;;;;;;4828850;29;20182;-84
2023/08/14 02:39:48;;;;;;;10.80;3.83;;;13.50;99.90;;;;;;4828846;29;20489;-84
2023/08/14 02:42:17;;;;;;;7.47;3.63;;;13.40;99.90;;;;;;4832157;29;20813;-84
2023/08/14 02:44:43;;;;;;;11.53;3.80;;;13.40;99.90;;;;;;4832672;29;20806;-83
2023/08/14 02:47:09;;;;;;;12.70;3.90;;;13.30;99.90;;;;;;4829021;29;20438;-84
2023/08/14 02:49:35;;;;;;;7.40;3.83;;;13.30;99.90;;;;;;4828794;29;20826;-84
2023/08/14 02:52:00;;;;;;;8.23;3.27;;;13.20;99.90;;;;;;4828817;29;20626;-84
2023/08/14 02:54:26;;;;;;;4.13;3.40;;;13.20;99.90;;;;;;4828791;29;20635;-84
2023/08/14 02:56:52;;;;;;;5.40;3.33;;;13.20;99.90;;;;;;4829158;29;20250;-84
2023/08/14 02:59:52;;;;;;;9.33;3.53;;;13.10;99.90;;;;;;4828985;29;20441;-84
2023/08/14 03:09:13;;;;;;;7.30;3.80;;;13.00;99.90;;;;;;4829043;29;20477;-84
2023/08/14 03:15:36;;;;;;;9.13;3.67;;;13.00;99.90;;;;;;4828434;29;20443;-84
2023/08/14 03:18:39;;;;;;;7.97;3.60;;;13.00;99.90;;;;;;4828270;29;20452;-84
2023/08/14 03:21:04;;;;;;;8.90;4.20;;;13.00;99.90;;;;;;4828141;29;20411;-84
2023/08/14 03:23:30;;;;;;;8.27;4.10;;;13.00;99.90;;;;;;4828377;29;20435;-84
2023/08/14 03:26:01;;;;;;;8.30;4.03;;;13.00;99.90;;;;;;4828369;29;20193;-84
2023/08/14 03:28:26;;;;;;;8.40;4.03;;;12.90;99.90;;;;;;4828248;29;20646;-84
2023/08/14 03:30:52;;;;;;;9.73;3.57;;;12.90;99.90;;;;;;4827875;29;20431;-84
2023/08/14 03:48:05;;;;;;;6.07;3.43;;;12.80;99.90;;;;;;4817548;29;20560;-85
2023/08/14 03:50:30;;;;;;;10.13;4.77;;;12.80;99.90;;;;;;4793338;29;20436;-85
2023/08/14 03:52:56;;;;;;;6.50;3.87;;;12.80;99.90;;;;;;4793593;29;20234;-85
2023/08/14 03:55:22;;;;;;;6.50;3.87;;;12.80;99.90;;;;;;4809016;29;20202;-85
2023/08/14 03:57:47;;;;;;;7.00;4.17;;;12.80;99.90;;;;;;4809521;29;20186;-85
2023/08/14 04:00:13;;;;;;;9.70;4.13;;;12.80;99.90;;;;;;4792806;29;20483;-85
2023/08/14 04:02:39;;;;;;;11.83;4.20;;;12.80;99.90;;;;;;4809338;29;20258;-85
2023/08/14 04:05:05;;;;;;;12.03;4.63;;;12.80;99.90;;;;;;4809006;29;20202;-85
2023/08/14 04:07:31;;;;;;;5.23;3.03;;;12.80;99.90;;;;;;4809131;29;20186;-84
2023/08/14 04:09:56;;;;;;;8.30;4.30;;;12.80;99.90;;;;;;4808435;29;20432;-84
2023/08/14 04:12:22;;;;;;;7.23;4.40;;;12.80;99.90;;;;;;4809345;29;20205;-84
2023/08/14 04:14:49;;;;;;;13.70;4.90;;;12.80;99.90;;;;;;4809054;29;20198;-84
2023/08/14 04:17:15;;;;;;;8.57;4.03;;;12.80;99.90;;;;;;4808850;29;20214;-84
2023/08/14 04:19:40;;;;;;;5.10;4.13;;;12.70;99.90;;;;;;4809028;29;20484;-84
2023/08/14 04:22:06;;;;;;;7.20;3.87;;;12.70;99.90;;;;;;4808923;29;20202;-85
2023/08/14 04:24:31;;;;;;;7.00;4.00;;;12.70;99.90;;;;;;4792883;29;20194;-84
2023/08/14 04:26:57;;;;;;;7.90;3.70;;;12.70;99.90;;;;;;4808672;29;20199;-84
2023/08/14 04:29:23;;;;;;;6.50;3.87;;;12.70;99.90;;;;;;4808646;29;20191;-84
2023/08/14 04:31:48;;;;;;;8.10;3.80;;;12.70;99.90;;;;;;4808577;29;20202;-84
2023/08/14 04:34:14;;;;;;;11.93;4.50;;;12.70;99.90;;;;;;4808491;29;20194;-84
2023/08/14 04:36:40;;;;;;;5.87;3.90;;;12.70;99.90;;;;;;4792758;29;20206;-84
2023/08/14 04:39:07;;;;;;;12.80;4.23;;;12.70;99.90;;;;;;4808498;29;20224;-84
2023/08/14 04:41:32;;;;;;;6.00;3.90;;;12.70;99.90;;;;;;4808579;29;20209;-84
2023/08/14 04:43:58;;;;;;;9.20;4.10;;;12.70;99.90;;;;;;4807609;29;20420;-84
2023/08/14 04:46:35;;;;;;;7.47;4.37;;;12.70;99.90;;;;;;4792037;29;20209;-85
2023/08/14 04:49:02;;;;;;;6.17;4.10;;;12.80;99.90;;;;;;4808476;29;20579;-84
2023/08/14 04:51:28;;;;;;;14.57;4.87;;;12.80;99.90;;;;;;4808394;29;20768;-83
2023/08/14 04:53:54;;;;;;;9.37;3.70;;;12.80;99.90;;;;;;4807874;29;20434;-84
2023/08/14 04:56:20;;;;;;;7.87;4.97;;;12.80;99.90;;;;;;4808139;29;20416;-84
2023/08/14 04:58:46;;;;;;;4.13;3.50;;;12.80;99.90;;;;;;4808538;29;20515;-84
2023/08/14 05:01:12;;;;;;;7.70;4.97;;;12.90;99.90;;;;;;4808099;29;20277;-84
2023/08/14 05:03:38;;;;;;;7.47;4.27;;;12.90;99.90;;;;;;4808290;29;20849;-84
2023/08/14 05:06:03;;;;;;;6.90;4.00;;;12.90;99.90;;;;;;4808387;29;20186;-93
2023/08/14 05:08:30;;;;;;;7.50;4.53;;;13.00;99.90;;;;;;4808056;29;20420;-84
2023/08/14 05:10:56;;;;;;;8.30;4.07;;;13.00;99.90;;;;;;4792128;29;20202;-84
2023/08/14 05:13:21;;;;;;;8.27;4.27;;;13.10;99.90;;;;;;4808188;29;20454;-84
2023/08/14 05:15:49;;;;;;;7.13;4.33;;;13.10;99.90;;;;;;4808120;29;20237;-84
2023/08/14 05:18:15;;;;;;;12.87;5.23;;;13.20;99.90;;;;;;4807394;29;20206;-84
2023/08/14 05:20:45;;;;;;;7.27;3.70;;;13.20;99.90;;;;;;4807784;29;20480;-84
2023/08/14 05:23:11;;;;;;;12.20;4.23;;;13.20;99.90;;;;;;4807882;29;20511;-84
2023/08/14 05:25:37;;;;;;;6.70;4.60;;;13.30;99.90;;;;;;4807702;29;20956;-85
2023/08/14 05:28:04;;;;;;;9.20;3.80;;;13.40;99.90;;;;;;4807984;29;20437;-84
2023/08/14 05:30:29;;;;;;;7.10;4.60;;;13.50;99.90;;;;;;4807753;29;20556;-84
2023/08/14 05:32:55;;;;;;;6.57;4.13;;;13.50;99.90;;;;;;4807660;29;20416;-84
2023/08/14 05:35:23;;;;;;;7.10;4.10;;;13.60;99.90;;;;;;4807891;29;20644;-84
2023/08/14 05:37:55;;;;;;;9.83;4.67;;;13.70;99.90;;;;;;4807699;29;20241;-85
2023/08/14 05:40:20;;;;;;;8.03;4.67;;;13.80;99.90;;;;;;4807689;29;20566;-84
2023/08/14 05:43:05;;;;;;;10.53;4.93;;;14.00;99.90;;;;;;4807466;29;20925;-84
2023/08/14 05:45:32;;;;;;;11.53;4.40;;;14.20;99.90;;;;;;4807865;29;20190;-84
2023/08/14 05:47:59;;;;;;;7.53;4.00;;;14.30;99.90;;;;;;4807364;29;20958;-84
2023/08/14 05:50:26;;;;;;;9.30;4.10;;;14.40;99.90;;;;;;4807015;29;20401;-84
2023/08/14 05:52:54;;;;;;;11.03;4.30;;;14.60;99.90;;;;;;4790998;29;20498;-84
2023/08/14 05:55:20;;;;;;;10.23;4.57;;;14.70;99.90;;;;;;4806878;29;20502;-84
2023/08/14 05:57:45;;;;;;;11.93;4.17;;;14.80;99.90;;;;;;4807173;29;20420;-83
2023/08/14 06:00:11;;;;;;;6.73;3.87;;;14.90;99.90;;;;;;4806965;29;20233;-85
2023/08/14 06:02:37;;;;;;;9.00;3.70;;;15.00;99.90;;;;;;4807440;29;20236;-84
2023/08/14 06:05:03;;;;;;;12.40;3.80;;;15.20;99.90;;;;;;4807320;29;20432;-83
2023/08/14 06:07:29;;;;;;;7.03;3.73;;;15.20;99.90;;;;;;4807080;29;20416;-84
2023/08/14 06:09:54;;;;;;;6.83;3.10;;;15.30;99.90;;;;;;4807356;29;20428;-84
2023/08/14 06:12:20;;;;;;;8.63;3.07;;;15.40;99.90;;;;;;4807032;29;20195;-84
2023/08/14 06:14:45;;;;;;;5.80;3.10;;;15.50;99.90;;;;;;4807359;29;20201;-84
2023/08/14 06:17:11;;;;;;;6.07;3.30;;;15.50;99.90;;;;;;4807081;29;20301;-84
2023/08/14 06:19:36;;;;;;;7.00;2.83;;;15.60;99.90;;;;;;4807033;29;20226;-84
2023/08/14 06:22:03;;;;;;;7.03;2.70;;;15.70;99.90;;;;;;4806977;29;20202;-84
2023/08/14 06:24:29;;;;;;;4.77;2.67;;;15.80;99.90;;;;;;4790584;29;20714;-83
2023/08/14 06:26:58;;;;;;;5.70;2.60;;;15.80;99.90;;;;;;4807234;29;20424;-83
2023/08/14 06:29:23;;;;;;;6.87;3.20;;;15.90;99.90;;;;;;4806579;29;20538;-84
2023/08/14 06:31:49;;;;;;;5.33;2.60;;;16.00;99.90;;;;;;4807189;29;20503;-83
2023/08/14 06:34:15;;;;;;;9.73;3.00;;;16.20;99.90;;;;;;4807297;29;20259;-84
2023/08/14 06:36:41;;;;;;;5.07;3.10;;;16.30;99.90;;;;;;4806910;29;20194;-83
2023/08/14 06:39:07;;;;;;;6.63;2.70;;;16.50;99.90;;;;;;4806848;29;20457;-84
2023/08/14 06:41:32;;;;;;;6.20;3.00;;;16.60;99.90;;;;;;4806357;29;20190;-84
2023/08/14 06:43:58;;;;;;;6.80;2.63;;;16.80;99.90;;;;;;4791009;29;20197;-86
2023/08/14 06:46:23;;;;;;;5.83;2.43;;;16.90;99.90;;;;;;4806366;29;20655;-87
2023/08/14 06:48:49;;;;;;;7.70;3.10;;;17.00;99.90;;;;;;4807044;29;20238;-86
2023/08/14 06:51:14;;;;;;;10.67;2.70;;;17.10;99.90;;;;;;4790311;29;20556;-86
2023/08/14 06:53:40;;;;;;;8.27;2.47;;;17.20;99.90;;;;;;4806916;29;20609;-87
2023/08/14 06:56:06;;;;;;;11.57;2.10;;;17.40;99.90;;;;;;4806578;29;20282;-86
2023/08/14 06:58:31;;;;;;;6.70;2.70;;;17.50;99.90;;;;;;4806478;29;20206;-87
2023/08/14 07:00:58;;;;;;;6.23;2.60;;;17.60;99.90;;;;;;4790522;29;20207;-87
2023/08/14 07:03:24;;;;;;;5.90;2.80;;;17.70;99.90;;;;;;4806283;29;20284;-87
2023/08/14 07:05:50;;;;;;;9.00;3.30;;;17.60;99.90;;;;;;4807236;29;20507;-87
2023/08/14 07:08:15;;;;;;;2.90;1.93;;;17.90;99.90;;;;;;4809551;29;20240;-87
2023/08/14 07:10:41;;;;;;;5.00;2.00;;;17.90;99.90;;;;;;4810025;29;20194;-86
2023/08/14 07:13:06;;;;;;;3.60;2.33;;;18.10;99.90;;;;;;4809933;29;20197;-87
2023/08/14 07:15:32;;;;;;;15.90;2.50;;;18.10;99.90;;;;;;4809437;29;20202;-87
2023/08/14 07:17:58;;;;;;;4.13;2.03;;;18.20;99.90;;;;;;4809395;29;20198;-86
2023/08/14 07:20:26;;;;;;;5.40;1.87;;;18.20;99.90;;;;;;4809362;29;20233;-87
2023/08/14 07:22:52;;;;;;;9.07;2.63;;;18.30;99.90;;;;;;4809598;29;20207;-86
2023/08/14 07:25:17;;;;;;;3.70;2.53;;;18.50;99.90;;;;;;4809627;29;20489;-87
2023/08/14 07:27:43;;;;;;;5.50;2.47;;;18.60;99.90;;;;;;4793605;29;20410;-86
2023/08/14 07:30:09;;;;;;;4.93;2.20;;;18.90;99.90;;;;;;4809317;29;20339;-86
2023/08/14 07:32:35;;;;;;;4.90;2.47;;;19.00;99.90;;;;;;4809222;29;20218;-87
2023/08/14 07:35:01;;;;;;;4.70;1.90;;;19.20;99.90;;;;;;4793164;29;20462;-87
2023/08/14 07:37:29;;;;;;;5.40;2.27;;;19.40;99.90;;;;;;4808983;29;20665;-87
2023/08/14 07:39:54;;;;;;;3.37;2.10;;;19.60;99.90;;;;;;4809370;29;20479;-86
2023/08/14 07:42:20;;;;;;;3.23;2.00;;;19.70;99.90;;;;;;4809021;29;20398;-87
2023/08/14 07:44:45;;;;;;;3.17;1.90;;;19.80;99.90;;;;;;4809064;29;20564;-87
2023/08/14 07:47:12;;;;;;;6.83;2.17;;;19.80;99.90;;;;;;4808920;29;20330;-87
2023/08/14 07:49:38;;;;;;;6.87;2.13;;;19.90;99.90;;;;;;4809080;29;20210;-87
2023/08/14 07:52:05;;;;;;;3.40;2.33;;;19.80;99.90;;;;;;4809018;29;20391;-86
2023/08/14 07:54:30;;;;;;;3.57;1.80;;;19.90;99.90;;;;;;4808623;29;20194;-86
2023/08/14 07:56:56;;;;;;;6.63;2.10;;;19.90;99.90;;;;;;4809182;29;20428;-87
2023/08/14 07:59:22;;;;;;;5.20;2.83;;;19.90;99.90;;;;;;4808727;29;20230;-86
2023/08/14 08:01:48;;;;;;;6.63;2.63;;;20.00;99.90;;;;;;4809077;29;20198;-86
2023/08/14 08:04:14;;;;;;;2.47;1.83;;;20.10;99.90;;;;;;4808804;29;20655;-94
2023/08/14 08:06:39;;;;;;;5.07;1.90;;;20.20;99.90;;;;;;4808701;29;20390;-86
2023/08/14 08:09:07;;;;;;;8.67;1.60;;;20.20;99.90;;;;;;4808486;29;20206;-86
2023/08/14 08:11:33;;;;;;;5.40;2.20;;;20.30;99.90;;;;;;4808424;29;20258;-87
2023/08/14 08:13:59;;;;;;;5.40;1.70;;;20.60;99.90;;;;;;4808641;29;20884;-86
2023/08/14 08:16:25;;;;;;;7.10;1.90;;;21.20;99.90;;;;;;4792187;29;20429;-87
2023/08/14 08:18:50;;;;;;;2.83;2.30;;;21.60;99.90;;;;;;4807046;29;20194;-86
2023/08/14 08:21:16;;;;;;;5.27;1.70;;;21.90;99.90;;;;;;4808119;29;20420;-87
2023/08/14 08:23:41;;;;;;;3.87;1.87;;;22.20;99.90;;;;;;4791925;29;20254;-87
2023/08/14 08:26:07;;;;;;;3.40;1.40;;;22.30;99.90;;;;;;4808200;29;20277;-87
2023/08/14 08:28:33;;;;;;;5.97;1.80;;;22.70;99.90;;;;;;4807867;29;20279;-87
2023/08/14 08:30:58;;;;;;;5.90;2.00;;;23.30;99.90;;;;;;4792158;29;20206;-86
2023/08/14 08:33:24;;;;;;;4.33;1.50;;;23.40;99.90;;;;;;4808283;29;20285;-87
2023/08/14 08:35:49;;;;;;;2.53;1.60;;;23.70;99.90;;;;;;4791736;29;20198;-86
2023/08/14 08:38:16;;;;;;;3.30;1.90;;;23.40;99.90;;;;;;4807496;29;20247;-87
2023/08/14 08:40:46;;;;;;;5.80;2.20;;;23.10;99.90;;;;;;4807807;29;20222;-87
2023/08/14 08:43:13;;;;;;;4.13;1.70;;;23.00;99.90;;;;;;4808192;29;20515;-87
2023/08/14 08:45:42;;;;;;;8.73;2.00;;;23.50;99.90;;;;;;4808106;29;20436;-87
2023/08/14 08:48:07;;;;;;;6.03;2.13;;;23.80;99.90;;;;;;4807589;29;20532;-86
2023/08/14 08:50:33;;;;;;;4.07;1.70;;;23.90;99.90;;;;;;4791558;29;20828;-86
2023/08/14 08:52:59;;;;;;;5.10;2.23;;;24.10;99.90;;;;;;4807576;29;20285;-87
2023/08/14 08:55:25;;;;;;;3.50;2.33;;;24.30;99.90;;;;;;4807775;29;20194;-87
2023/08/14 08:57:53;;;;;;;5.10;2.57;;;24.20;99.90;;;;;;4791639;29;20770;-87
2023/08/14 09:00:20;;;;;;;7.90;1.90;;;24.50;99.90;;;;;;4807824;29;20573;-87
2023/08/14 09:02:46;;;;;;;5.80;2.50;;;24.70;99.90;;;;;;4807441;29;20423;-86
2023/08/14 09:05:11;;;;;;;6.50;2.30;;;24.80;99.90;;;;;;4807676;29;20436;-87
2023/08/14 09:07:37;;;;;;;5.13;2.17;;;24.80;99.90;;;;;;4807161;29;20202;-87
2023/08/14 09:10:03;;;;;;;5.50;2.27;;;24.90;99.90;;;;;;4807582;29;20206;-86
2023/08/14 09:12:30;;;;;;;5.93;2.20;;;25.00;99.90;;;;;;4806978;29;20186;-87
2023/08/14 09:15:04;;;;;;;7.57;2.60;;;25.10;99.90;;;;;;4807520;29;20457;-87
2023/08/14 09:17:30;;;;;;;2.70;1.87;;;25.00;99.90;;;;;;4806772;29;20935;-87
2023/08/14 09:19:56;;;;;;;8.63;2.47;;;24.90;99.90;;;;;;4807298;29;20477;-87
2023/08/14 09:22:24;;;;;;;5.80;2.80;;;25.00;99.90;;;;;;4807159;29;20273;-87
2023/08/14 09:24:50;;;;;;;6.20;2.73;;;25.60;99.90;;;;;;4807592;29;20271;-86
2023/08/14 09:27:16;;;;;;;6.77;2.57;;;26.10;99.90;;;;;;4807074;29;20432;-86
2023/08/14 09:29:42;;;;;;;6.37;2.60;;;26.20;99.90;;;;;;4806742;29;20781;-86
2023/08/14 09:32:09;;;;;;;3.33;2.73;;;27.20;99.90;;;;;;4806753;29;20186;-87
2023/08/14 09:34:37;;;;;;;3.33;2.30;;;27.00;99.90;;;;;;4806245;29;20202;-87
2023/08/14 09:37:04;;;;;;;3.60;2.23;;;27.10;99.90;;;;;;4806767;29;20473;-87
2023/08/14 09:39:29;;;;;;;5.33;2.20;;;27.80;99.90;;;;;;4806948;29;20471;-88
2023/08/14 09:41:55;;;;;;;3.37;1.87;;;29.00;99.90;;;;;;4806621;29;20424;-90
2023/08/14 09:44:23;;;;;;;5.70;2.40;;;28.60;99.90;;;;;;4807204;29;20537;-89
2023/08/14 09:47:05;;;;;;;3.77;1.70;;;29.10;99.90;;;;;;4809341;29;20209;-89
2023/08/14 09:49:32;;;;;;;6.17;2.20;;;29.30;99.90;;;;;;4806842;29;20812;-88
2023/08/14 09:51:58;;;;;;;3.63;1.60;;;29.50;99.90;;;;;;4806769;29;20435;-88
2023/08/14 09:54:31;;;;;;;7.33;1.93;;;29.40;99.90;;;;;;4791150;29;20428;-89
2023/08/14 09:57:16;;;;;;;4.40;2.43;;;29.00;99.90;;;;;;4806806;29;20424;-89
2023/08/14 10:03:07;;;;;;;3.20;1.73;;;28.00;99.90;;;;;;4806689;29;20523;-89
2023/08/14 10:05:38;;;;;;;6.50;2.43;;;27.90;99.90;;;;;;4806189;29;20810;-88
2023/08/14 10:08:07;;;;;;;5.77;2.03;;;27.60;99.90;;;;;;4807010;29;20403;-89
2023/08/14 10:14:00;;;;;;;8.10;2.10;;;27.50;99.90;;;;;;4806584;29;20820;-89
2023/08/14 10:16:34;;;;;;;7.93;2.27;;;27.50;99.90;;;;;;4806614;29;20414;-89
2023/08/14 10:19:57;;;;;;;4.17;2.17;;;27.70;99.90;;;;;;4806625;29;20463;-89
2023/08/14 10:22:26;;;;;;;3.80;2.00;;;28.40;99.90;;;;;;4791822;29;20952;-89
2023/08/14 10:24:53;;;;;;;2.90;1.90;;;28.70;99.90;;;;;;4795104;29;20416;-89
2023/08/14 10:28:02;;;;;;;6.00;2.03;;;28.70;99.90;;;;;;4807916;29;20516;-89
2023/08/14 10:34:23;;;;;;;3.17;1.90;;;28.60;99.90;;;;;;4806314;29;20485;-89
2023/08/14 10:36:51;;;;;;;7.93;1.90;;;29.30;99.90;;;;;;4806508;29;20761;-89
2023/08/14 10:39:16;;;;;;;3.40;2.03;;;28.60;99.90;;;;;;4806610;29;20466;-89
2023/08/14 10:41:50;;;;;;;4.50;1.80;;;28.20;99.90;;;;;;4777946;29;20452;-89
2023/08/14 10:44:16;;;;;;;3.63;2.00;;;28.30;99.90;;;;;;4809981;29;20206;-87
2023/08/14 10:46:42;;;;;;;5.03;1.90;;;28.20;99.90;;;;;;4793889;29;20803;-91
2023/08/14 10:49:11;;;;;;;3.67;2.00;;;28.10;99.90;;;;;;4810358;29;20487;-88
2023/08/14 10:51:40;;;;;;;7.70;2.17;;;28.00;99.90;;;;;;4817107;29;20489;-88
2023/08/14 10:54:11;;;;;;;4.17;2.17;;;27.90;99.90;;;;;;4809800;29;20432;-89
2023/08/14 10:56:57;;;;;;;5.40;1.83;;;27.90;99.90;;;;;;4793447;29;20823;-89
2023/08/14 10:59:31;;;;;;;3.90;1.80;;;28.00;99.90;;;;;;4809627;29;20503;-90
2023/08/14 11:02:13;;;;;;;3.03;2.03;;;27.90;99.90;;;;;;4809509;29;20408;-89
2023/08/14 11:08:07;;;;;;;5.53;1.73;;;27.40;99.90;;;;;;4787772;29;20489;-89
2023/08/14 11:10:34;;;;;;;3.30;2.00;;;27.30;99.90;;;;;;4793207;29;20443;-89
2023/08/14 11:13:01;;;;;;;6.90;2.20;;;27.30;99.90;;;;;;4809426;29;20787;-89
2023/08/14 11:15:30;;;;;;;4.90;2.07;;;27.40;99.90;;;;;;4809517;29;20436;-90
2023/08/14 11:17:56;;;;;;;5.10;2.20;;;27.80;99.90;;;;;;4809859;29;20416;-89
2023/08/14 11:20:59;;;;;;;5.70;2.17;;;27.90;99.90;;;;;;4809424;29;20476;-89
2023/08/14 11:23:25;;;;;;;3.20;1.90;;;28.10;99.90;;;;;;4809287;29;20442;-89
2023/08/14 11:25:50;;;;;;;5.97;2.20;;;28.10;99.90;;;;;;4809499;29;20894;-89
2023/08/14 11:29:05;;;;;;;6.37;2.50;;;28.20;99.90;;;;;;4793393;29;20315;-89
2023/08/14 11:31:31;;;;;;;3.73;1.83;;;28.50;99.90;;;;;;4809101;29;20250;-89
2023/08/14 11:33:57;;;;;;;5.10;1.90;;;28.30;99.90;;;;;;4809240;29;20420;-90
2023/08/14 11:36:23;;;;;;;4.83;2.40;;;28.10;99.90;;;;;;4808762;29;20205;-90
2023/08/14 11:38:50;;;;;;;5.93;2.60;;;28.30;99.90;;;;;;4809131;29;20205;-89
2023/08/14 11:41:15;;;;;;;8.93;2.23;;;28.30;99.90;;;;;;4809096;29;20504;-90
2023/08/14 11:43:41;;;;;;;3.33;2.20;;;28.50;99.90;;;;;;4792815;29;20435;-89
2023/08/14 11:46:07;;;;;;;5.33;2.30;;;28.90;99.90;;;;;;4809287;29;20238;-91
2023/08/14 11:48:34;;;;;;;5.43;2.23;;;29.40;99.90;;;;;;4808569;29;20324;-89
2023/08/14 11:51:00;;;;;;;7.03;2.50;;;29.40;99.90;;;;;;4808868;29;20202;-89
2023/08/14 11:53:27;;;;;;;4.90;2.47;;;29.40;99.90;;;;;;4812831;29;20918;-87
2023/08/14 11:55:53;;;;;;;5.80;2.07;;;29.30;99.90;;;;;;4809309;29;20202;-90
2023/08/14 11:58:19;;;;;;;4.60;2.20;;;29.10;99.90;;;;;;4822892;29;20421;-93
2023/08/14 12:00:50;;;;;;;4.83;2.77;;;28.70;99.90;;;;;;4816827;29;20214;-95
2023/08/14 12:03:16;;;;;;;3.03;2.13;;;28.40;99.90;;;;;;4816419;29;20178;-95
2023/08/14 12:05:44;;;;;;;4.00;2.27;;;28.80;99.90;;;;;;4813613;29;20773;-88
2023/08/14 12:08:11;;;;;;;5.53;2.70;;;29.00;99.90;;;;;;4809827;29;20444;-93
2023/08/14 12:10:39;;;;;;;5.10;2.20;;;29.20;99.90;;;;;;4809059;29;20424;-92
2023/08/14 12:13:05;;;;;;;3.30;2.57;;;29.60;99.90;;;;;;4808750;29;20420;-91
2023/08/14 12:15:31;;;;;;;4.57;2.30;;;29.90;99.90;;;;;;4810931;29;20452;-93
2023/08/14 12:17:57;;;;;;;5.33;2.40;;;29.60;99.90;;;;;;4808776;29;20592;-93
2023/08/14 12:20:22;;;;;;;6.97;2.70;;;29.80;99.90;;;;;;4808308;29;20568;-94
2023/08/14 12:22:48;;;;;;;5.27;2.93;;;30.20;99.90;;;;;;4793175;29;20332;-95
2023/08/14 12:25:21;;;;;;;3.63;2.53;;;30.40;99.90;;;;;;4792193;29;20194;-94
2023/08/14 12:27:47;;;;;;;4.27;2.27;;;30.70;99.90;;;;;;4808827;29;20412;-94
2023/08/14 12:30:12;;;;;;;6.50;2.60;;;30.60;99.90;;;;;;4810146;29;20434;-91
2023/08/14 12:32:45;;;;;;;6.07;2.40;;;30.50;99.90;;;;;;4794039;29;20662;-94
2023/08/14 12:35:11;;;;;;;4.93;2.20;;;30.50;99.90;;;;;;4809475;29;20214;-95
2023/08/14 12:37:37;;;;;;;5.67;2.60;;;30.80;99.90;;;;;;4808254;29;20856;-94
2023/08/14 12:40:08;;;;;;;5.40;2.53;;;31.40;99.90;;;;;;4809491;29;20250;-89
2023/08/14 12:42:35;;;;;;;8.10;3.47;;;31.60;99.90;;;;;;4807840;29;20262;-93
2023/08/14 12:45:01;;;;;;;8.17;4.30;;;31.80;99.90;;;;;;4808310;29;20432;-93
2023/08/14 12:47:26;;;;;;;7.07;4.23;;;32.10;99.90;;;;;;4792173;29;20482;-91
2023/08/14 12:49:52;;;;;;;6.57;3.40;;;32.40;99.90;;;;;;4807861;29;20186;-91
2023/08/14 12:52:18;;;;;;;5.17;2.60;;;32.70;99.90;;;;;;4807999;29;20221;-91
2023/08/14 12:54:43;;;;;;;4.40;2.23;;;32.50;99.90;;;;;;4808000;29;20187;-93
2023/08/14 12:57:09;;;;;;;6.20;2.93;;;32.80;99.90;;;;;;4792308;29;20201;-94
2023/08/14 12:59:34;;;;;;;5.87;2.30;;;33.40;99.90;;;;;;4793150;29;20241;-95
2023/08/14 13:02:00;;;;;;;4.90;2.40;;;33.80;99.90;;;;;;4792682;29;20205;-91
2023/08/14 13:04:25;;;;;;;4.57;2.37;;;33.60;99.90;;;;;;4793973;29;20201;-95
2023/08/14 13:06:51;;;;;;;4.40;2.57;;;33.80;99.90;;;;;;4811938;29;20194;-95
2023/08/14 13:09:17;;;;;;;3.53;2.10;;;34.20;99.90;;;;;;4797687;29;20206;-93
2023/08/14 13:11:42;;;;;;;3.90;2.40;;;34.50;99.90;;;;;;4814467;29;20565;-93
2023/08/14 13:14:08;;;;;;;7.50;2.70;;;34.70;99.90;;;;;;4793599;29;20186;-92
2023/08/14 13:16:34;;;;;;;4.27;2.30;;;34.40;99.90;;;;;;4808511;29;20611;-94
2023/08/14 13:18:59;;;;;;;2.87;2.30;;;34.50;99.90;;;;;;4810723;29;20197;-95
2023/08/14 13:21:25;;;;;;;2.90;2.20;;;34.70;99.90;;;;;;4795852;29;20199;-96
2023/08/14 13:23:50;;;;;;;3.40;1.90;;;34.60;99.90;;;;;;4811957;29;20545;-96
2023/08/14 13:26:16;;;;;;;3.93;2.07;;;34.50;99.90;;;;;;4793827;29;20238;-94
2023/08/14 13:28:42;;;;;;;2.27;2.00;;;34.90;99.90;;;;;;4807864;29;20195;-94